KDKK/DKK METAR and TAF weather

Enter ICAO airport designator
Station Type Date Time Source
KDKK METAR 2022/01/26 19:08 UTC NOAA

KDKK 261908Z AUTO 30004KT 1/2SM SN VV010 M08/M11 A3037 RMK AO2 P0000 T10781106


Station Type Date Time Source
KDKK Decoded METAR 2022/01/26 19:08 UTC NOAA

CHAUTAUQUA COUNTY/DUNKIRK, NY, United States (KDKK) 42-30N 079-17W 202M
Jan 26, 2022 - 02:08 PM EST / 2022.01.26 1908 UTC
Wind: from the WNW (300 degrees) at 5 MPH (4 KT):0
Visibility: 1/2 mile(s):0
Sky conditions: obscured
Weather: snow
Precipitation last hour: A trace
Temperature: 18.0 F (-7.8 C)
Windchill: 10 F (-12 C):1
Dew Point: 12.9 F (-10.6 C)
Relative Humidity: 80%
Pressure (altimeter): 30.37 in. Hg (1028 hPa)
ob: KDKK 261908Z AUTO 30004KT 1/2SM SN VV010 M08/M11 A3037 RMK AO2 P0000 T10781106
cycle: 19

Station Type Date Time Source
KDKK TAF UTC NOAA

Error!

Example: see airport list